createdAt,value
2022-12-19T00:00:50.292Z,9.90
2022-12-19T00:03:28.237Z,11.70
2022-12-19T00:05:56.942Z,8.10
2022-12-19T00:08:25.414Z,9.20
2022-12-19T00:11:00.970Z,8.70
2022-12-19T00:13:35.291Z,10.20
2022-12-19T00:16:19.136Z,6.90
2022-12-19T00:18:49.664Z,8.90
2022-12-19T00:21:22.624Z,9.10
2022-12-19T00:23:52.112Z,9.50
2022-12-19T00:26:29.628Z,9.40
2022-12-19T00:29:03.464Z,9.60
2022-12-19T00:31:35.683Z,9.70
2022-12-19T00:34:04.939Z,5.50
2022-12-19T00:36:34.881Z,6.20
2022-12-19T00:39:07.731Z,10.10
2022-12-19T00:41:41.863Z,7.20
2022-12-19T00:44:16.142Z,7.20
2022-12-19T00:46:47.153Z,9.60
2022-12-19T00:49:22.163Z,9.10
2022-12-19T00:51:50.715Z,5.50
2022-12-19T00:54:19.329Z,6.90
2022-12-19T00:56:48.291Z,5.40
2022-12-19T00:59:18.906Z,6.40
2022-12-19T01:01:57.996Z,6.80
2022-12-19T01:04:28.857Z,9.50
2022-12-19T01:07:01.996Z,9.30
2022-12-19T01:09:35.108Z,6.30
2022-12-19T01:12:25.140Z,10.50
2022-12-19T01:15:04.286Z,9.70
2022-12-19T01:17:38.698Z,8.40
2022-12-19T01:20:28.916Z,8.10
2022-12-19T01:23:00.117Z,7.30
2022-12-19T01:25:29.716Z,9.20
2022-12-19T01:27:58.283Z,8.90
2022-12-19T01:30:30.126Z,11.00
2022-12-19T01:33:01.208Z,9.60
2022-12-19T01:35:29.849Z,8.50
2022-12-19T01:38:08.053Z,10.30
2022-12-19T01:40:37.681Z,8.40
2022-12-19T01:43:07.140Z,10.30
2022-12-19T01:45:45.203Z,10.20
2022-12-19T01:48:23.082Z,8.60
2022-12-19T01:51:02.731Z,9.10
2022-12-19T01:53:49.467Z,8.20
2022-12-19T01:56:29.590Z,8.20
2022-12-19T01:59:06.334Z,6.70
2022-12-19T02:01:50.793Z,5.10
2022-12-19T02:04:30.247Z,11.00
2022-12-19T02:07:15.810Z,8.70
2022-12-19T02:09:56.526Z,8.10
2022-12-19T02:12:34.430Z,9.50
2022-12-19T02:15:04.476Z,9.60
2022-12-19T02:17:52.789Z,9.30
2022-12-19T02:20:53.017Z,8.30
2022-12-19T02:24:05.808Z,8.80
2022-12-19T02:27:01.671Z,9.90
2022-12-19T02:30:14.843Z,8.50
2022-12-19T02:33:17.692Z,7.90
2022-12-19T02:36:08.591Z,9.80
2022-12-19T02:39:02.762Z,8.70
2022-12-19T02:41:47.879Z,9.40
2022-12-19T02:44:58.579Z,10.20
2022-12-19T02:47:28.855Z,8.30
2022-12-19T02:49:57.503Z,8.60
2022-12-19T02:52:26.435Z,6.00
2022-12-19T02:55:01.805Z,10.10
2022-12-19T02:58:11.196Z,11.50
2022-12-19T03:00:56.151Z,11.00
2022-12-19T03:03:42.997Z,8.40
2022-12-19T03:06:37.087Z,9.30
2022-12-19T03:09:20.287Z,8.50
2022-12-19T03:12:00.764Z,9.50
2022-12-19T03:14:31.714Z,8.20
2022-12-19T03:17:08.195Z,7.40
2022-12-19T03:19:40.229Z,8.90
2022-12-19T03:22:08.737Z,9.00
2022-12-19T03:24:37.394Z,8.90
2022-12-19T03:27:28.619Z,9.00
2022-12-19T03:30:06.403Z,9.90
2022-12-19T03:32:38.424Z,6.50
2022-12-19T03:35:30.720Z,9.60
2022-12-19T03:38:04.067Z,8.50
2022-12-19T03:40:35.192Z,9.60
2022-12-19T03:43:11.544Z,10.20
2022-12-19T03:45:40.707Z,10.00
2022-12-19T03:48:20.469Z,11.30
2022-12-19T03:51:28.575Z,9.50
2022-12-19T03:54:15.937Z,8.70
2022-12-19T03:57:00.900Z,9.60
2022-12-19T03:59:59.517Z,11.20
2022-12-19T04:02:29.570Z,10.30
2022-12-19T04:05:05.215Z,9.20
2022-12-19T04:07:35.366Z,9.50
2022-12-19T04:10:10.418Z,9.10
2022-12-19T04:12:43.215Z,10.20
2022-12-19T04:15:14.158Z,11.10
2022-12-19T04:17:55.489Z,10.20
2022-12-19T04:20:31.272Z,6.50
2022-12-19T04:23:35.999Z,12.00
2022-12-19T04:26:09.053Z,9.30
2022-12-19T04:28:51.130Z,10.40
2022-12-19T04:31:21.535Z,10.20
2022-12-19T04:33:50.887Z,10.60
2022-12-19T04:36:20.708Z,11.50
2022-12-19T04:38:50.328Z,10.30
2022-12-19T04:41:20.346Z,8.90
2022-12-19T04:43:49.189Z,10.80
2022-12-19T04:46:18.909Z,11.10
2022-12-19T04:48:48.186Z,9.70
2022-12-19T04:51:19.242Z,9.70
2022-12-19T04:53:51.425Z,10.80
2022-12-19T04:56:21.269Z,10.00
2022-12-19T04:58:50.904Z,10.40
2022-12-19T05:01:20.164Z,10.90
2022-12-19T05:03:54.320Z,11.30
2022-12-19T05:06:24.650Z,10.00
2022-12-19T05:08:53.539Z,8.90
2022-12-19T05:11:22.282Z,5.30
2022-12-19T05:13:51.874Z,10.30
2022-12-19T05:16:20.622Z,10.60
2022-12-19T05:18:49.502Z,11.50
2022-12-19T05:21:18.310Z,9.80
2022-12-19T05:23:47.219Z,10.20
2022-12-19T05:26:16.045Z,11.40
2022-12-19T05:28:44.611Z,8.30
2022-12-19T05:31:44.249Z,10.70
2022-12-19T05:34:14.053Z,12.90
2022-12-19T05:36:43.422Z,12.60
2022-12-19T05:39:12.549Z,11.60
2022-12-19T05:41:41.764Z,7.80
2022-12-19T05:44:11.920Z,6.00
2022-12-19T05:46:40.796Z,12.20
2022-12-19T05:49:10.521Z,12.90
2022-12-19T05:51:39.966Z,4.10
2022-12-19T05:54:08.650Z,11.90
2022-12-19T05:56:37.356Z,13.50
2022-12-19T05:59:06.087Z,14.20
2022-12-19T06:01:34.964Z,10.80
2022-12-19T06:04:04.545Z,13.40
2022-12-19T06:06:33.153Z,14.10
2022-12-19T06:09:02.821Z,15.30
2022-12-19T06:11:31.373Z,16.20
2022-12-19T06:14:00.128Z,15.00
2022-12-19T06:16:28.680Z,14.50
2022-12-19T06:18:57.280Z,14.00
2022-12-19T06:21:26.374Z,12.80
2022-12-19T06:23:55.519Z,13.90
2022-12-19T06:26:24.394Z,9.80
2022-12-19T06:28:55.528Z,13.80
2022-12-19T06:31:26.090Z,13.40
2022-12-19T06:33:55.904Z,16.20
2022-12-19T06:36:28.125Z,17.30
2022-12-19T06:38:59.481Z,14.60
2022-12-19T06:41:46.794Z,11.00
2022-12-19T06:44:17.474Z,13.20
2022-12-19T06:46:46.093Z,12.90
2022-12-19T06:49:14.999Z,13.00
2022-12-19T06:51:43.882Z,14.70
2022-12-19T06:54:13.865Z,10.70
2022-12-19T06:56:44.329Z,12.20
2022-12-19T06:59:15.664Z,8.90
2022-12-19T07:02:17.726Z,11.60
2022-12-19T07:04:52.776Z,11.90
2022-12-19T07:07:21.374Z,12.20
2022-12-19T07:09:50.042Z,13.70
2022-12-19T07:12:18.716Z,14.60
2022-12-19T07:14:52.961Z,13.40
2022-12-19T07:17:25.137Z,14.10
2022-12-19T07:19:56.543Z,13.00
2022-12-19T07:22:30.303Z,12.20
2022-12-19T07:24:59.639Z,12.20
2022-12-19T07:27:35.451Z,10.60
2022-12-19T07:30:08.118Z,13.30
2022-12-19T07:32:37.248Z,11.90
2022-12-19T07:35:08.309Z,12.60
2022-12-19T07:37:37.072Z,13.60
2022-12-19T07:40:07.070Z,11.40
2022-12-19T07:42:35.714Z,12.80
2022-12-19T07:45:04.920Z,11.60
2022-12-19T07:47:33.928Z,11.40
2022-12-19T07:50:02.843Z,14.30
2022-12-19T07:52:32.308Z,13.80
2022-12-19T07:55:01.058Z,14.10
2022-12-19T07:57:29.752Z,14.00
2022-12-19T07:59:58.524Z,14.30
2022-12-19T08:02:27.586Z,14.40
2022-12-19T08:04:56.591Z,14.50
2022-12-19T08:07:27.176Z,13.10
2022-12-19T08:09:56.345Z,9.40
2022-12-19T08:12:25.322Z,12.40
2022-12-19T08:14:57.083Z,6.70
2022-12-19T08:17:26.475Z,9.10
2022-12-19T08:19:55.371Z,8.40
2022-12-19T08:22:24.009Z,9.30
2022-12-19T08:24:52.648Z,12.50
2022-12-19T08:27:21.273Z,9.10
2022-12-19T08:29:49.956Z,12.30
2022-12-19T08:32:21.470Z,13.00
2022-12-19T08:34:51.318Z,13.30
2022-12-19T08:37:20.341Z,11.10
2022-12-19T08:39:49.000Z,13.20
2022-12-19T08:42:17.864Z,7.70
2022-12-19T08:44:46.423Z,13.00
2022-12-19T21:54:03.559Z,48.10
2022-12-19T21:56:39.273Z,45.30
2022-12-19T21:59:17.778Z,42.50
2022-12-19T22:01:46.692Z,42.80
2022-12-19T22:04:22.821Z,42.90
2022-12-19T22:06:51.931Z,44.60
2022-12-19T22:09:23.647Z,45.40
2022-12-19T22:11:52.588Z,33.10
2022-12-19T22:14:21.139Z,26.00
2022-12-19T22:16:50.492Z,28.00
2022-12-19T22:19:20.348Z,45.90
2022-12-19T22:21:50.465Z,45.90
2022-12-19T22:24:20.504Z,47.10
2022-12-19T22:26:49.169Z,44.60
2022-12-19T22:29:17.960Z,48.60
2022-12-19T22:31:47.780Z,30.70
2022-12-19T22:34:20.211Z,28.30
2022-12-19T22:36:50.277Z,25.70
2022-12-19T22:39:20.706Z,23.20
2022-12-19T22:41:49.857Z,26.30
2022-12-19T22:44:24.866Z,14.90
2022-12-19T22:46:53.767Z,33.70
2022-12-19T22:49:22.405Z,23.60
2022-12-19T22:51:51.165Z,15.90
2022-12-19T22:54:19.720Z,19.10
2022-12-19T22:56:52.256Z,27.00
2022-12-19T22:59:21.260Z,14.90
2022-12-19T23:01:50.001Z,20.40
2022-12-19T23:04:19.088Z,25.00
2022-12-19T23:06:48.003Z,14.40
2022-12-19T23:09:18.554Z,8.50
2022-12-19T23:11:49.663Z,17.30
2022-12-19T23:14:20.604Z,13.60
2022-12-19T23:16:49.663Z,15.00
2022-12-19T23:19:18.955Z,25.70
2022-12-19T23:21:48.577Z,8.60
2022-12-19T23:24:19.385Z,26.50
2022-12-19T23:26:47.924Z,23.50
2022-12-19T23:29:17.159Z,14.70
2022-12-19T23:31:47.717Z,22.60
2022-12-19T23:34:16.818Z,15.40
2022-12-19T23:37:10.310Z,10.80
2022-12-19T23:39:34.810Z,22.00
2022-12-19T23:42:03.535Z,25.10
2022-12-19T23:44:32.408Z,28.90
2022-12-19T23:47:03.522Z,30.10
2022-12-19T23:49:34.032Z,30.00
2022-12-19T23:52:02.763Z,31.40
2022-12-19T23:54:31.701Z,33.80
2022-12-19T23:57:00.371Z,31.80
2022-12-19T23:59:29.055Z,33.10
